sensor_id;sensor_type;location;lat;lon;timestamp;pressure;altitude;pressure_sealevel;temperature
73673;BMP280;61972;19.480;-99.240;2024-02-16T00:01:36;77518.38;;;24.65
73673;BMP280;61972;19.480;-99.240;2024-02-16T00:04:11;77528.81;;;24.65
73673;BMP280;61972;19.480;-99.240;2024-02-16T00:06:48;77528.81;;;24.65
73673;BMP280;61972;19.480;-99.240;2024-02-16T00:09:14;77529.38;;;24.66
73673;BMP280;61972;19.480;-99.240;2024-02-16T00:11:41;77518.38;;;24.65
73673;BMP280;61972;19.480;-99.240;2024-02-16T00:14:07;77522.09;;;24.66
73673;BMP280;61972;19.480;-99.240;2024-02-16T00:16:33;77524.69;;;24.66
73673;BMP280;61972;19.480;-99.240;2024-02-16T00:18:59;77529.94;;;24.66
73673;BMP280;61972;19.480;-99.240;2024-02-16T00:21:26;77533.09;;;24.67
73673;BMP280;61972;19.480;-99.240;2024-02-16T00:23:52;77529.38;;;24.66
73673;BMP280;61972;19.480;-99.240;2024-02-16T00:26:18;77535.16;;;24.66
73673;BMP280;61972;19.480;-99.240;2024-02-16T00:28:55;77527.31;;;24.66
73673;BMP280;61972;19.480;-99.240;2024-02-16T00:31:24;77535.16;;;24.66
73673;BMP280;61972;19.480;-99.240;2024-02-16T00:33:53;77546.72;;;24.67
73673;BMP280;61972;19.480;-99.240;2024-02-16T00:36:19;77550.81;;;24.66
73673;BMP280;61972;19.480;-99.240;2024-02-16T00:38:45;77555.69;;;24.68
73673;BMP280;61972;19.480;-99.240;2024-02-16T00:41:22;77564.47;;;24.67
73673;BMP280;61972;19.480;-99.240;2024-02-16T00:43:49;77559.22;;;24.67
73673;BMP280;61972;19.480;-99.240;2024-02-16T00:46:19;77562.41;;;24.67
73673;BMP280;61972;19.480;-99.240;2024-02-16T00:48:45;77557.16;;;24.67
73673;BMP280;61972;19.480;-99.240;2024-02-16T00:51:12;77567.63;;;24.67
73673;BMP280;61972;19.480;-99.240;2024-02-16T00:53:39;77567.63;;;24.67
73673;BMP280;61972;19.480;-99.240;2024-02-16T00:56:05;77569.09;;;24.66
73673;BMP280;61972;19.480;-99.240;2024-02-16T00:58:32;77563.88;;;24.66
73673;BMP280;61972;19.480;-99.240;2024-02-16T01:00:59;77571.72;;;24.66
73673;BMP280;61972;19.480;-99.240;2024-02-16T01:03:25;77572.28;;;24.67
73673;BMP280;61972;19.480;-99.240;2024-02-16T01:05:55;77574.91;;;24.67
73673;BMP280;61972;19.480;-99.240;2024-02-16T01:08:21;77561.28;;;24.66
73673;BMP280;61972;19.480;-99.240;2024-02-16T01:10:48;77567.63;;;24.67
73673;BMP280;61972;19.480;-99.240;2024-02-16T01:13:15;77580.69;;;24.67
73673;BMP280;61972;19.480;-99.240;2024-02-16T01:15:41;77586.44;;;24.68
73673;BMP280;61972;19.480;-99.240;2024-02-16T01:18:07;77589.06;;;24.68
73673;BMP280;61972;19.480;-99.240;2024-02-16T01:20:33;77594.28;;;24.68
73673;BMP280;61972;19.480;-99.240;2024-02-16T01:23:07;77605.31;;;24.68
73673;BMP280;61972;19.480;-99.240;2024-02-16T01:25:33;77605.69;;;24.66
73673;BMP280;61972;19.480;-99.240;2024-02-16T01:28:05;77625.09;;;24.67
73673;BMP280;61972;19.480;-99.240;2024-02-16T01:30:35;77618.75;;;24.66
73673;BMP280;61972;19.480;-99.240;2024-02-16T01:33:09;77637.03;;;24.66
73673;BMP280;61972;19.480;-99.240;2024-02-16T01:35:36;77644.88;;;24.66
73673;BMP280;61972;19.480;-99.240;2024-02-16T01:38:05;77650.09;;;24.66
73673;BMP280;61972;19.480;-99.240;2024-02-16T01:40:34;77650.09;;;24.66
73673;BMP280;61972;19.480;-99.240;2024-02-16T01:43:00;77649.00;;;24.65
73673;BMP280;61972;19.480;-99.240;2024-02-16T01:45:26;77645.84;;;24.65
73673;BMP280;61972;19.480;-99.240;2024-02-16T01:48:05;77649.53;;;24.66
73673;BMP280;61972;19.480;-99.240;2024-02-16T01:50:47;77647.88;;;24.64
73673;BMP280;61972;19.480;-99.240;2024-02-16T01:53:15;77642.09;;;24.64
73673;BMP280;61972;19.480;-99.240;2024-02-16T01:55:46;77646.75;;;24.63
73673;BMP280;61972;19.480;-99.240;2024-02-16T01:58:12;77645.63;;;24.62
73673;BMP280;61972;19.480;-99.240;2024-02-16T02:00:42;77651.97;;;24.63
73673;BMP280;61972;19.480;-99.240;2024-02-16T02:03:14;77652.94;;;24.62
73673;BMP280;61972;19.480;-99.240;2024-02-16T02:05:45;77655.56;;;24.62
73673;BMP280;61972;19.480;-99.240;2024-02-16T02:08:14;77660.22;;;24.61
73673;BMP280;61972;19.480;-99.240;2024-02-16T02:10:41;77663.38;;;24.62
73673;BMP280;61972;19.480;-99.240;2024-02-16T02:13:11;77654.44;;;24.61
73673;BMP280;61972;19.480;-99.240;2024-02-16T02:15:37;77659.09;;;24.60
73673;BMP280;61972;19.480;-99.240;2024-02-16T02:18:07;77655.91;;;24.60
73673;BMP280;61972;19.480;-99.240;2024-02-16T02:20:36;77655.38;;;24.59
73673;BMP280;61972;19.480;-99.240;2024-02-16T02:23:03;77660.59;;;24.59
73673;BMP280;61972;19.480;-99.240;2024-02-16T02:25:29;77662.66;;;24.59
73673;BMP280;61972;19.480;-99.240;2024-02-16T02:27:59;77660.59;;;24.59
73673;BMP280;61972;19.480;-99.240;2024-02-16T02:30:25;77672.56;;;24.58
73673;BMP280;61972;19.480;-99.240;2024-02-16T02:32:51;77676.66;;;24.57
73673;BMP280;61972;19.480;-99.240;2024-02-16T02:35:18;77682.44;;;24.58
73673;BMP280;61972;19.480;-99.240;2024-02-16T02:38:08;77681.88;;;24.57
73673;BMP280;61972;19.480;-99.240;2024-02-16T02:40:37;77693.44;;;24.58
73673;BMP280;61972;19.480;-99.240;2024-02-16T02:43:04;77687.09;;;24.57
73673;BMP280;61972;19.480;-99.240;2024-02-16T02:45:34;77691.38;;;24.59
73673;BMP280;61972;19.480;-99.240;2024-02-16T02:48:00;77689.72;;;24.57
73673;BMP280;61972;19.480;-99.240;2024-02-16T02:50:27;77691.38;;;24.59
73673;BMP280;61972;19.480;-99.240;2024-02-16T02:52:56;77685.63;;;24.58
73673;BMP280;61972;19.480;-99.240;2024-02-16T02:55:25;77683.00;;;24.58
73673;BMP280;61972;19.480;-99.240;2024-02-16T02:57:52;77680.38;;;24.58
73673;BMP280;61972;19.480;-99.240;2024-02-16T03:00:18;77680.38;;;24.58
73673;BMP280;61972;19.480;-99.240;2024-02-16T03:02:45;77683.00;;;24.58
73673;BMP280;61972;19.480;-99.240;2024-02-16T03:05:20;77687.66;;;24.58
73673;BMP280;61972;19.480;-99.240;2024-02-16T03:07:50;77682.44;;;24.58
73673;BMP280;61972;19.480;-99.240;2024-02-16T03:10:16;77682.44;;;24.58
73673;BMP280;61972;19.480;-99.240;2024-02-16T03:12:47;77685.63;;;24.58
73673;BMP280;61972;19.480;-99.240;2024-02-16T03:15:16;77680.75;;;24.56
73673;BMP280;61972;19.480;-99.240;2024-02-16T03:17:43;77686.53;;;24.57
73673;BMP280;61972;19.480;-99.240;2024-02-16T03:20:10;77683.38;;;24.56
73673;BMP280;61972;19.480;-99.240;2024-02-16T03:22:36;77690.09;;;24.55
73673;BMP280;61972;19.480;-99.240;2024-02-16T03:25:03;77699.97;;;24.54
73673;BMP280;61972;19.480;-99.240;2024-02-16T03:27:35;77693.66;;;24.53
73673;BMP280;61972;19.480;-99.240;2024-02-16T03:30:01;77703.53;;;24.53
73673;BMP280;61972;19.480;-99.240;2024-02-16T03:32:28;77705.59;;;24.52
73673;BMP280;61972;19.480;-99.240;2024-02-16T03:34:57;77710.25;;;24.52
73673;BMP280;61972;19.480;-99.240;2024-02-16T03:37:24;77711.75;;;24.51
73673;BMP280;61972;19.480;-99.240;2024-02-16T03:39:50;77719.59;;;24.51
73673;BMP280;61972;19.480;-99.240;2024-02-16T03:42:16;77725.19;;;24.49
73673;BMP280;61972;19.480;-99.240;2024-02-16T03:44:46;77713.09;;;24.47
73673;BMP280;61972;19.480;-99.240;2024-02-16T03:47:12;77722.97;;;24.47
73673;BMP280;61972;19.480;-99.240;2024-02-16T03:49:39;77727.63;;;24.46
73673;BMP280;61972;19.480;-99.240;2024-02-16T03:52:05;77721.28;;;24.45
73673;BMP280;61972;19.480;-99.240;2024-02-16T03:54:32;77722.25;;;24.44
73673;BMP280;61972;19.480;-99.240;2024-02-16T03:57:00;77719.06;;;24.43
73673;BMP280;61972;19.480;-99.240;2024-02-16T03:59:27;77716.25;;;24.41
73673;BMP280;61972;19.480;-99.240;2024-02-16T04:01:56;77712.16;;;24.42
73673;BMP280;61972;19.480;-99.240;2024-02-16T04:04:24;77711.03;;;24.41
73673;BMP280;61972;19.480;-99.240;2024-02-16T04:06:55;77720.38;;;24.40
73673;BMP280;61972;19.480;-99.240;2024-02-16T04:09:21;77720.75;;;24.37
73673;BMP280;61972;19.480;-99.240;2024-02-16T04:11:50;77724.47;;;24.39
73673;BMP280;61972;19.480;-99.240;2024-02-16T04:14:16;77714.44;;;24.36
73673;BMP280;61972;19.480;-99.240;2024-02-16T04:16:47;77722.25;;;24.36
73673;BMP280;61972;19.480;-99.240;2024-02-16T04:19:13;77722.25;;;24.36
73673;BMP280;61972;19.480;-99.240;2024-02-16T04:21:40;77715.91;;;24.35
73673;BMP280;61972;19.480;-99.240;2024-02-16T04:24:09;77715.34;;;24.35
73673;BMP280;61972;19.480;-99.240;2024-02-16T04:26:37;77714.81;;;24.34
73673;BMP280;61972;19.480;-99.240;2024-02-16T04:29:04;77706.97;;;24.34
73673;BMP280;61972;19.480;-99.240;2024-02-16T04:31:30;77720.03;;;24.34
73673;BMP280;61972;19.480;-99.240;2024-02-16T04:33:59;77706.78;;;24.32
73673;BMP280;61972;19.480;-99.240;2024-02-16T04:36:30;77709.41;;;24.32
73673;BMP280;61972;19.480;-99.240;2024-02-16T04:38:56;77702.13;;;24.32
73673;BMP280;61972;19.480;-99.240;2024-02-16T04:41:23;77707.38;;;24.32
73673;BMP280;61972;19.480;-99.240;2024-02-16T04:43:49;77711.47;;;24.31
73673;BMP280;61972;19.480;-99.240;2024-02-16T04:46:16;77716.69;;;24.31
73673;BMP280;61972;19.480;-99.240;2024-02-16T04:48:45;77715.00;;;24.30
73673;BMP280;61972;19.480;-99.240;2024-02-16T04:51:12;77717.06;;;24.29
73673;BMP280;61972;19.480;-99.240;2024-02-16T04:53:38;77718.00;;;24.28
73673;BMP280;61972;19.480;-99.240;2024-02-16T04:56:05;77722.66;;;24.27
73673;BMP280;61972;19.480;-99.240;2024-02-16T04:58:31;77718.94;;;24.26
73673;BMP280;61972;19.480;-99.240;2024-02-16T05:01:00;77718.94;;;24.26
73673;BMP280;61972;19.480;-99.240;2024-02-16T05:03:26;77714.28;;;24.27
73673;BMP280;61972;19.480;-99.240;2024-02-16T05:06:07;77708.66;;;24.29
73673;BMP280;61972;19.480;-99.240;2024-02-16T05:08:33;77701.56;;;24.32
73673;BMP280;61972;19.480;-99.240;2024-02-16T05:11:02;77715.91;;;24.35
73673;BMP280;61972;19.480;-99.240;2024-02-16T05:13:28;77714.19;;;24.48
73673;BMP280;61972;19.480;-99.240;2024-02-16T05:15:54;77723.47;;;24.62
73673;BMP280;61972;19.480;-99.240;2024-02-16T05:18:24;77730.06;;;24.82
73673;BMP280;61972;19.480;-99.240;2024-02-16T05:20:50;77732.19;;;25.06
73673;BMP280;61972;19.480;-99.240;2024-02-16T05:23:16;77724.00;;;25.32
73673;BMP280;61972;19.480;-99.240;2024-02-16T05:25:43;77714.81;;;25.60
73673;BMP280;61972;19.480;-99.240;2024-02-16T05:28:09;77717.22;;;25.89
73673;BMP280;61972;19.480;-99.240;2024-02-16T05:30:35;77715.97;;;26.19
73673;BMP280;61972;19.480;-99.240;2024-02-16T05:33:01;77716.22;;;26.48
73673;BMP280;61972;19.480;-99.240;2024-02-16T05:35:28;77730.13;;;26.78
73673;BMP280;61972;19.480;-99.240;2024-02-16T05:37:59;77737.63;;;27.07
73673;BMP280;61972;19.480;-99.240;2024-02-16T05:40:32;77735.19;;;27.36
73673;BMP280;61972;19.480;-99.240;2024-02-16T05:43:11;77730.09;;;27.65
73673;BMP280;61972;19.480;-99.240;2024-02-16T05:45:37;77726.75;;;27.89
73673;BMP280;61972;19.480;-99.240;2024-02-16T05:48:07;77730.16;;;28.12
73673;BMP280;61972;19.480;-99.240;2024-02-16T05:50:34;77732.41;;;28.33
73673;BMP280;61972;19.480;-99.240;2024-02-16T05:53:01;77733.56;;;28.54
73673;BMP280;61972;19.480;-99.240;2024-02-16T05:55:27;77743.16;;;28.75
73673;BMP280;61972;19.480;-99.240;2024-02-16T05:57:53;77751.59;;;28.95
73673;BMP280;61972;19.480;-99.240;2024-02-16T06:00:23;77743.28;;;29.16
73673;BMP280;61972;19.480;-99.240;2024-02-16T06:02:49;77745.22;;;29.33
73673;BMP280;61972;19.480;-99.240;2024-02-16T06:05:18;77749.19;;;29.49
73673;BMP280;61972;19.480;-99.240;2024-02-16T06:07:46;77746.69;;;29.61
73673;BMP280;61972;19.480;-99.240;2024-02-16T06:10:15;77740.97;;;29.73
73673;BMP280;61972;19.480;-99.240;2024-02-16T06:12:41;77737.34;;;29.84
73673;BMP280;61972;19.480;-99.240;2024-02-16T06:15:08;77733.16;;;29.95
73673;BMP280;61972;19.480;-99.240;2024-02-16T06:17:34;77726.75;;;30.04
73673;BMP280;61972;19.480;-99.240;2024-02-16T06:20:02;77720.44;;;30.15
73673;BMP280;61972;19.480;-99.240;2024-02-16T06:22:32;77714.19;;;30.26
73673;BMP280;61972;19.480;-99.240;2024-02-16T06:24:58;77707.31;;;30.37
73673;BMP280;61972;19.480;-99.240;2024-02-16T06:27:24;77701.56;;;30.49
73673;BMP280;61972;19.480;-99.240;2024-02-16T06:29:50;77703.59;;;30.58
73673;BMP280;61972;19.480;-99.240;2024-02-16T06:32:19;77701.84;;;30.66
73673;BMP280;61972;19.480;-99.240;2024-02-16T06:34:45;77697.81;;;30.70
73673;BMP280;61972;19.480;-99.240;2024-02-16T06:37:11;77689.63;;;30.74
73673;BMP280;61972;19.480;-99.240;2024-02-16T06:39:38;77687.66;;;30.78
73673;BMP280;61972;19.480;-99.240;2024-02-16T06:42:04;77688.28;;;30.81
73673;BMP280;61972;19.480;-99.240;2024-02-16T06:44:30;77692.72;;;30.85
73673;BMP280;61972;19.480;-99.240;2024-02-16T06:46:57;77696.72;;;30.91
73673;BMP280;61972;19.480;-99.240;2024-02-16T06:49:26;77687.06;;;30.99
73673;BMP280;61972;19.480;-99.240;2024-02-16T06:51:52;77697.44;;;31.06
73673;BMP280;61972;19.480;-99.240;2024-02-16T06:54:21;77702.53;;;31.13
73673;BMP280;61972;19.480;-99.240;2024-02-16T06:56:47;77706.94;;;31.18
73673;BMP280;61972;19.480;-99.240;2024-02-16T06:59:17;77703.84;;;31.20
73673;BMP280;61972;19.480;-99.240;2024-02-16T07:01:44;77707.16;;;31.23
73673;BMP280;61972;19.480;-99.240;2024-02-16T07:04:10;77710.50;;;31.26
73673;BMP280;61972;19.480;-99.240;2024-02-16T07:06:36;77713.81;;;31.29
73673;BMP280;61972;19.480;-99.240;2024-02-16T07:09:02;77715.56;;;31.33
73673;BMP280;61972;19.480;-99.240;2024-02-16T07:11:28;77721.50;;;31.36
73673;BMP280;61972;19.480;-99.240;2024-02-16T07:13:55;77705.91;;;31.41
73673;BMP280;61972;19.480;-99.240;2024-02-16T07:16:22;77707.66;;;31.45
73673;BMP280;61972;19.480;-99.240;2024-02-16T07:18:48;77701.50;;;31.49
73673;BMP280;61972;19.480;-99.240;2024-02-16T07:21:19;77690.94;;;31.49
73673;BMP280;61972;19.480;-99.240;2024-02-16T07:23:47;77695.81;;;31.51
73673;BMP280;61972;19.480;-99.240;2024-02-16T07:26:17;77695.81;;;31.51
73673;BMP280;61972;19.480;-99.240;2024-02-16T07:28:43;77700.66;;;31.54
73673;BMP280;61972;19.480;-99.240;2024-02-16T07:31:12;77696.91;;;31.52
73673;BMP280;61972;19.480;-99.240;2024-02-16T07:33:42;77705.50;;;31.56
73673;BMP280;61972;19.480;-99.240;2024-02-16T07:36:08;77703.50;;;31.59
73673;BMP280;61972;19.480;-99.240;2024-02-16T07:38:34;77702.66;;;31.63
73673;BMP280;61972;19.480;-99.240;2024-02-16T07:41:01;77712.88;;;31.67
73673;BMP280;61972;19.480;-99.240;2024-02-16T07:43:30;77711.34;;;31.68
73673;BMP280;61972;19.480;-99.240;2024-02-16T07:45:56;77721.38;;;31.68
73673;BMP280;61972;19.480;-99.240;2024-02-16T07:48:23;77723.59;;;31.70
73673;BMP280;61972;19.480;-99.240;2024-02-16T07:50:49;77721.38;;;31.68
73673;BMP280;61972;19.480;-99.240;2024-02-16T07:53:16;77719.84;;;31.69
73673;BMP280;61972;19.480;-99.240;2024-02-16T07:55:42;77715.66;;;31.70
73673;BMP280;61972;19.480;-99.240;2024-02-16T07:58:08;77712.56;;;31.72
73673;BMP280;61972;19.480;-99.240;2024-02-16T08:00:35;77707.41;;;31.75
73673;BMP280;61972;19.480;-99.240;2024-02-16T08:03:01;77708.06;;;31.78
73673;BMP280;61972;19.480;-99.240;2024-02-16T08:05:28;77718.75;;;31.80
73673;BMP280;61972;19.480;-99.240;2024-02-16T08:07:54;77703.56;;;31.83
73673;BMP280;61972;19.480;-99.240;2024-02-16T08:10:21;77702.00;;;31.84
73673;BMP280;61972;19.480;-99.240;2024-02-16T08:12:48;77694.09;;;31.84
73673;BMP280;61972;19.480;-99.240;2024-02-16T08:15:14;77688.81;;;31.84
73673;BMP280;61972;19.480;-99.240;2024-02-16T08:17:41;77692.44;;;31.83
73673;BMP280;61972;19.480;-99.240;2024-02-16T08:20:07;77686.63;;;31.82
73673;BMP280;61972;19.480;-99.240;2024-02-16T08:22:33;77682.97;;;31.84
73673;BMP280;61972;19.480;-99.240;2024-02-16T08:25:00;77685.72;;;31.86
73673;BMP280;61972;19.480;-99.240;2024-02-16T08:27:26;77687.91;;;31.88
73673;BMP280;61972;19.480;-99.240;2024-02-16T08:29:53;77683.19;;;31.89
73673;BMP280;61972;19.480;-99.240;2024-02-16T08:32:19;77672.06;;;31.88
73673;BMP280;61972;19.480;-99.240;2024-02-16T08:34:46;77660.41;;;31.87
73673;BMP280;61972;19.480;-99.240;2024-02-16T08:37:16;77667.22;;;31.86
73673;BMP280;61972;19.480;-99.240;2024-02-16T08:39:43;77668.75;;;31.85
73673;BMP280;61972;19.480;-99.240;2024-02-16T08:42:09;77674.03;;;31.85
73673;BMP280;61972;19.480;-99.240;2024-02-16T08:44:46;77671.94;;;31.86
73673;BMP280;61972;19.480;-99.240;2024-02-16T08:47:17;77670.50;;;31.77
73673;BMP280;61972;19.480;-99.240;2024-02-16T08:49:47;77667.63;;;31.60
73673;BMP280;61972;19.480;-99.240;2024-02-16T08:52:14;77664.53;;;31.37
73673;BMP280;61972;19.480;-99.240;2024-02-16T08:54:42;77671.97;;;31.15
73673;BMP280;61972;19.480;-99.240;2024-02-16T08:57:12;77673.94;;;30.89
73673;BMP280;61972;19.480;-99.240;2024-02-16T08:59:41;77674.84;;;30.63
73673;BMP280;61972;19.480;-99.240;2024-02-16T09:02:10;77670.97;;;30.38
73673;BMP280;61972;19.480;-99.240;2024-02-16T09:04:36;77663.47;;;30.13
73673;BMP280;61972;19.480;-99.240;2024-02-16T09:07:09;77660.09;;;29.88
73673;BMP280;61972;19.480;-99.240;2024-02-16T09:09:44;77666.59;;;29.60
73673;BMP280;61972;19.480;-99.240;2024-02-16T09:12:17;77669.00;;;29.35
73673;BMP280;61972;19.480;-99.240;2024-02-16T09:14:44;77675.69;;;29.12
73673;BMP280;61972;19.480;-99.240;2024-02-16T09:17:10;77670.88;;;28.91
73673;BMP280;61972;19.480;-99.240;2024-02-16T09:19:39;77665.50;;;28.69
73673;BMP280;61972;19.480;-99.240;2024-02-16T09:22:09;77664.91;;;28.49
73673;BMP280;61972;19.480;-99.240;2024-02-16T09:24:35;77652.72;;;28.27
73673;BMP280;61972;19.480;-99.240;2024-02-16T09:27:05;77659.06;;;28.09
73673;BMP280;61972;19.480;-99.240;2024-02-16T09:29:32;77656.94;;;27.90
73673;BMP280;61972;19.480;-99.240;2024-02-16T09:32:02;77650.13;;;27.72
73673;BMP280;61972;19.480;-99.240;2024-02-16T09:34:32;77656.00;;;27.55
73673;BMP280;61972;19.480;-99.240;2024-02-16T09:36:58;77650.25;;;27.38
73673;BMP280;61972;19.480;-99.240;2024-02-16T09:39:28;77653.13;;;27.23
73673;BMP280;61972;19.480;-99.240;2024-02-16T09:41:54;77650.13;;;27.08
73673;BMP280;61972;19.480;-99.240;2024-02-16T09:44:28;77645.09;;;26.94
73673;BMP280;61972;19.480;-99.240;2024-02-16T09:46:56;77642.25;;;26.82
73673;BMP280;61972;19.480;-99.240;2024-02-16T09:49:23;77643.00;;;26.68
73673;BMP280;61972;19.480;-99.240;2024-02-16T09:51:53;77645.97;;;26.56
73673;BMP280;61972;19.480;-99.240;2024-02-16T09:54:20;77655.25;;;26.45
73673;BMP280;61972;19.480;-99.240;2024-02-16T09:56:47;77650.50;;;26.36
73673;BMP280;61972;19.480;-99.240;2024-02-16T09:59:14;77642.03;;;26.26
73673;BMP280;61972;19.480;-99.240;2024-02-16T10:01:40;77635.19;;;26.17
73673;BMP280;61972;19.480;-99.240;2024-02-16T10:04:07;77645.56;;;26.07
73673;BMP280;61972;19.480;-99.240;2024-02-16T10:06:46;77642.31;;;25.97
73673;BMP280;61972;19.480;-99.240;2024-02-16T10:09:25;77648.03;;;25.88
73673;BMP280;61972;19.480;-99.240;2024-02-16T10:11:52;77641.34;;;25.81
73673;BMP280;61972;19.480;-99.240;2024-02-16T10:14:18;77635.47;;;25.71
73673;BMP280;61972;19.480;-99.240;2024-02-16T10:17:08;77640.22;;;25.63
73673;BMP280;61972;19.480;-99.240;2024-02-16T10:19:43;77635.63;;;25.57
73673;BMP280;61972;19.480;-99.240;2024-02-16T10:22:11;77638.31;;;25.50
73673;BMP280;61972;19.480;-99.240;2024-02-16T10:24:38;77630.50;;;25.42
73673;BMP280;61972;19.480;-99.240;2024-02-16T10:27:17;77634.31;;;25.36
73673;BMP280;61972;19.480;-99.240;2024-02-16T10:29:47;77635.47;;;25.30
73673;BMP280;61972;19.480;-99.240;2024-02-16T10:32:22;77623.56;;;25.24
73673;BMP280;61972;19.480;-99.240;2024-02-16T10:34:49;77624.88;;;25.20
73673;BMP280;61972;19.480;-99.240;2024-02-16T10:37:19;77615.63;;;25.14
73673;BMP280;61972;19.480;-99.240;2024-02-16T10:39:46;77615.84;;;25.09
73673;BMP280;61972;19.480;-99.240;2024-02-16T10:42:14;77619.22;;;25.05
73673;BMP280;61972;19.480;-99.240;2024-02-16T10:44:41;77614.38;;;25.03
73673;BMP280;61972;19.480;-99.240;2024-02-16T10:47:08;77628.94;;;25.02
73673;BMP280;61972;19.480;-99.240;2024-02-16T10:49:34;77622.22;;;25.03
73673;BMP280;61972;19.480;-99.240;2024-02-16T10:52:00;77616.59;;;25.05
73673;BMP280;61972;19.480;-99.240;2024-02-16T10:54:31;77617.34;;;25.08
73673;BMP280;61972;19.480;-99.240;2024-02-16T10:56:59;77621.63;;;25.10
73673;BMP280;61972;19.480;-99.240;2024-02-16T10:59:25;77625.50;;;25.14
73673;BMP280;61972;19.480;-99.240;2024-02-16T11:02:00;77631.47;;;25.17
73673;BMP280;61972;19.480;-99.240;2024-02-16T11:04:36;77620.06;;;25.18
73673;BMP280;61972;19.480;-99.240;2024-02-16T11:07:11;77632.94;;;25.23
73673;BMP280;61972;19.480;-99.240;2024-02-16T11:09:39;77633.66;;;25.26
73673;BMP280;61972;19.480;-99.240;2024-02-16T11:12:07;77636.97;;;25.29
73673;BMP280;61972;19.480;-99.240;2024-02-16T11:14:46;77629.47;;;25.34
73673;BMP280;61972;19.480;-99.240;2024-02-16T11:17:21;77633.91;;;25.38
73673;BMP280;61972;19.480;-99.240;2024-02-16T11:19:48;77632.56;;;25.42
73673;BMP280;61972;19.480;-99.240;2024-02-16T11:22:16;77632.91;;;25.47
73673;BMP280;61972;19.480;-99.240;2024-02-16T11:24:49;77631.56;;;25.51
73673;BMP280;61972;19.480;-99.240;2024-02-16T11:27:16;77625.53;;;25.55
73673;BMP280;61972;19.480;-99.240;2024-02-16T11:29:47;77637.84;;;25.59
73673;BMP280;61972;19.480;-99.240;2024-02-16T11:32:14;77642.69;;;25.61
73673;BMP280;61972;19.480;-99.240;2024-02-16T11:34:40;77639.09;;;25.62
73673;BMP280;61972;19.480;-99.240;2024-02-16T11:37:06;77630.31;;;25.64
73673;BMP280;61972;19.480;-99.240;2024-02-16T11:39:33;77627.31;;;25.66
73673;BMP280;61972;19.480;-99.240;2024-02-16T11:42:03;77628.41;;;25.67
73673;BMP280;61972;19.480;-99.240;2024-02-16T11:44:33;77624.28;;;25.68
73673;BMP280;61972;19.480;-99.240;2024-02-16T11:47:02;77627.09;;;25.71
73673;BMP280;61972;19.480;-99.240;2024-02-16T11:49:32;77627.63;;;25.71
73673;BMP280;61972;19.480;-99.240;2024-02-16T11:52:04;77631.34;;;25.72
73673;BMP280;61972;19.480;-99.240;2024-02-16T11:54:30;77636.22;;;25.74
73673;BMP280;61972;19.480;-99.240;2024-02-16T11:56:57;77645.16;;;25.75
73673;BMP280;61972;19.480;-99.240;2024-02-16T11:59:24;77642.72;;;25.78
73673;BMP280;61972;19.480;-99.240;2024-02-16T12:01:51;77637.63;;;25.80
73673;BMP280;61972;19.480;-99.240;2024-02-16T12:04:25;77650.31;;;25.82
73673;BMP280;61972;19.480;-99.240;2024-02-16T12:06:53;77657.78;;;25.84
73673;BMP280;61972;19.480;-99.240;2024-02-16T12:09:20;77663.03;;;25.84
73673;BMP280;61972;19.480;-99.240;2024-02-16T12:11:48;77665.78;;;25.87
73673;BMP280;61972;19.480;-99.240;2024-02-16T12:14:30;77664.13;;;25.86
73673;BMP280;61972;19.480;-99.240;2024-02-16T12:16:57;77666.22;;;25.85
73673;BMP280;61972;19.480;-99.240;2024-02-16T12:19:25;77671.44;;;25.85
73673;BMP280;61972;19.480;-99.240;2024-02-16T12:21:52;77677.59;;;25.83
73673;BMP280;61972;19.480;-99.240;2024-02-16T12:24:19;77669.19;;;25.83
73673;BMP280;61972;19.480;-99.240;2024-02-16T12:26:45;77671.25;;;25.82
73673;BMP280;61972;19.480;-99.240;2024-02-16T12:29:11;77674.84;;;25.81
73673;BMP280;61972;19.480;-99.240;2024-02-16T12:31:46;77678.00;;;25.81
73673;BMP280;61972;19.480;-99.240;2024-02-16T12:34:14;77683.25;;;25.81
73673;BMP280;61972;19.480;-99.240;2024-02-16T12:36:43;77678.38;;;25.79
73673;BMP280;61972;19.480;-99.240;2024-02-16T12:39:09;77678.81;;;25.77
73673;BMP280;61972;19.480;-99.240;2024-02-16T12:41:38;77678.63;;;25.75
73673;BMP280;61972;19.480;-99.240;2024-02-16T12:44:07;77675.47;;;25.74
73673;BMP280;61972;19.480;-99.240;2024-02-16T12:46:36;77676.97;;;25.73
73673;BMP280;61972;19.480;-99.240;2024-02-16T12:49:04;77685.19;;;25.71
73673;BMP280;61972;19.480;-99.240;2024-02-16T12:51:30;77673.06;;;25.70
73673;BMP280;61972;19.480;-99.240;2024-02-16T12:53:57;77666.72;;;25.69
73673;BMP280;61972;19.480;-99.240;2024-02-16T12:56:23;77677.19;;;25.69
73673;BMP280;61972;19.480;-99.240;2024-02-16T12:58:52;77666.72;;;25.69
73673;BMP280;61972;19.480;-99.240;2024-02-16T13:01:18;77666.16;;;25.68
73673;BMP280;61972;19.480;-99.240;2024-02-16T13:03:44;77663.00;;;25.68
73673;BMP280;61972;19.480;-99.240;2024-02-16T13:06:10;77656.09;;;25.66
73673;BMP280;61972;19.480;-99.240;2024-02-16T13:08:37;77664.88;;;25.64
73673;BMP280;61972;19.480;-99.240;2024-02-16T13:11:03;77661.72;;;25.64
73673;BMP280;61972;19.480;-99.240;2024-02-16T13:13:30;77668.06;;;25.65
73673;BMP280;61972;19.480;-99.240;2024-02-16T13:15:57;77673.28;;;25.65
73673;BMP280;61972;19.480;-99.240;2024-02-16T13:18:24;77669.19;;;25.66
73673;BMP280;61972;19.480;-99.240;2024-02-16T13:20:51;77673.28;;;25.65
73673;BMP280;61972;19.480;-99.240;2024-02-16T13:23:20;77675.91;;;25.65
73673;BMP280;61972;19.480;-99.240;2024-02-16T13:25:48;77672.19;;;25.64
73673;BMP280;61972;19.480;-99.240;2024-02-16T13:28:15;77677.97;;;25.64
73673;BMP280;61972;19.480;-99.240;2024-02-16T13:30:42;77677.44;;;25.64
73673;BMP280;61972;19.480;-99.240;2024-02-16T13:33:08;77680.41;;;25.62
73673;BMP280;61972;19.480;-99.240;2024-02-16T13:35:35;77681.94;;;25.61
73673;BMP280;61972;19.480;-99.240;2024-02-16T13:38:01;77680.41;;;25.62
73673;BMP280;61972;19.480;-99.240;2024-02-16T13:40:27;77683.44;;;25.60
73673;BMP280;61972;19.480;-99.240;2024-02-16T13:42:54;77683.44;;;25.60
73673;BMP280;61972;19.480;-99.240;2024-02-16T13:45:28;77671.84;;;25.59
73673;BMP280;61972;19.480;-99.240;2024-02-16T13:47:56;77676.53;;;25.58
73673;BMP280;61972;19.480;-99.240;2024-02-16T13:50:23;77675.97;;;25.58